Archival Weather

Chicago O'Hare International

Chicago, Illinois (KORD)

Report from: Monday, January 15, 2024 7:51 PM CST
Current time: Wednesday, April 24, 2024 2:08 PM CDT

Current weather – Weather history – Daily summaries
Weather forecast

Temperature-18.9°C (-2.0°F)
Wind chill-27.6°C (-17.7°F)
Dew point-22.8°C (-9.0°F)
Winds 8 kts (4.1 m/s, 9.2 mph) West-Southwest (240°)
Wind gusts 17 kts (8.7 m/s, 19.6 mph)
Visibility10 mi. (16.1 km)
Clouds Scattered clouds 12,000 ft. (3,658 m)
Ceiling: Overcast 25,000 ft. (7,620 m)
Altimeter30.18 in.Hg (1022 mB)
Relative humidity71 %
Density altitude-4,677 ft. (-1,426 m)
Sea-level pressure102.4 kPa (1024 mB, 30.24 in.Hg)
Remarks System requires maintenance
Automated weather observing station with precipitation discriminator
Flight conditions Visual Meteorological Conditions
Raw dataKORD 160151Z 24008G17KT 10SM SCT120 OVC250 M19/M23 A3018 RMK AO2 SLP239 T11891228 $
An error has occurred. This application may no longer respond until reloaded. Reload 🗙